Stuyvesant — WNFX — position and weather

sailwx.info

Track history (hours):
 
Tides and Currents Weather Stations Pressure Air Temp Water Temp Dewpoint Dewpoint Depression Visibility Wind Speed Wind Dir Waves Ship Positions

Stuyvesant

Owner: THE DUTRA GROUP, SAN RAFAEL, CA. More information available from US FCC via Universal Licensing System and Coast Guard Vessel Documentation Center.

Last reported at 2016-Dec-10 17:33 UTC. Time now 2016-Dec-10 18:33 UTC.
Position N 31°60' W 080°47'.

Length 122 m; draft 10 m.

Type: Dredging. MMSI: 368098000.

Date/timePositionNaut miles runAvg speedWind from/ knotsBaromVisibWave heightAir tempDewpointWater temp
2016-Dec-10 17:33N 31°60' W 080°47'4 4.2
2016-Dec-10 16:33N 31°56' W 080°45'2 1.5
2016-Dec-10 15:33N 31°56' W 080°43'7 6.8
2016-Dec-10 14:33N 32°01' W 080°49'0 0.4
2016-Dec-10 13:33N 32°01' W 080°48'2 1.5
2016-Dec-10 12:33N 31°60' W 080°47'4 4.2
2016-Dec-10 11:33N 31°56' W 080°46'3 3.4
2016-Dec-10 10:33N 31°58' W 080°43'5 4.5
2016-Dec-10 09:33N 32°00' W 080°48'1 1.4
2016-Dec-10 08:33N 32°01' W 080°49'6 6.1
2016-Dec-10 07:33N 31°56' W 080°46'3 2.8
2016-Dec-10 06:27N 31°59' W 080°45'4 4.5
2016-Dec-10 05:33N 32°01' W 080°49'2 1.6
2016-Dec-10 04:33N 32°00' W 080°48'5 4.8
2016-Dec-10 03:33N 31°57' W 080°43'2 2.3
2016-Dec-10 02:33N 31°56' W 080°46'6 4.7
2016-Dec-10 01:20N 32°01' W 080°48'0 0.1
2016-Dec-10 00:33N 32°01' W 080°48'1 1.3
2016-Dec-09 23:33N 32°00' W 080°47'5 4.8
2016-Dec-09 22:33N 31°56' W 080°45'0 0.5
2016-Dec-09 21:33N 31°56' W 080°44'5 5.2
2016-Dec-09 20:32N 32°00' W 080°48'2 1.6
2016-Dec-09 19:33N 32°01' W 080°49'2 1.6
2016-Dec-09 18:33N 32°00' W 080°48'3 3.5
2016-Dec-09 17:33N 31°58' W 080°44'3 2.7
2016-Dec-09 16:33N 31°56' W 080°46'5 4.6
2016-Dec-09 15:33N 32°00' W 080°48'2 1.5
2016-Dec-09 14:33N 32°02' W 080°49'1 1.2
2016-Dec-09 13:33N 32°01' W 080°48'1 1.1
2016-Dec-09 12:33N 31°60' W 080°47'3 3.4
2016-Dec-09 11:32N 31°60' W 080°43'0 0.0
2016-Dec-09 10:32N 31°60' W 080°43'0 0.0
2016-Dec-09 09:32N 31°60' W 080°43'0 0.0
2016-Dec-09 08:32N 31°60' W 080°43'0 0.0
2016-Dec-09 07:32N 31°60' W 080°43'0 0.0
2016-Dec-09 06:32N 31°60' W 080°43'0 0.0
2016-Dec-09 05:32N 31°60' W 080°43'0 0.0
2016-Dec-09 04:26N 31°60' W 080°43'0 0.0
2016-Dec-09 03:32N 31°60' W 080°43'0 0.0
2016-Dec-09 02:26N 31°60' W 080°43'0 0.0
2016-Dec-09 01:26N 31°60' W 080°43'0 0.0
2016-Dec-09 00:32N 31°60' W 080°43'0 0.0
2016-Dec-08 23:32N 31°60' W 080°43'0 0.0
2016-Dec-08 22:32N 31°60' W 080°43'0 0.0
2016-Dec-08 21:32N 31°60' W 080°43'0 0.0
2016-Dec-08 20:26N 31°60' W 080°43'0 0.0
2016-Dec-08 19:32N 31°60' W 080°43'0 0.1
2016-Dec-08 18:32N 31°60' W 080°43'0 0.0
2016-Dec-08 17:26N 31°60' W 080°43'0 0.0
2016-Dec-08 16:32N 31°60' W 080°43'0 0.0
2016-Dec-08 15:33N 31°60' W 080°43'1 1.3
2016-Dec-08 14:33N 31°59' W 080°44'1 1.3
2016-Dec-08 13:30N 31°60' W 080°43'0 0.0
2016-Dec-08 12:30N 31°60' W 080°43'0 0.0
2016-Dec-08 11:24N 31°60' W 080°43'0 0.0
2016-Dec-08 10:30N 31°60' W 080°43'0 0.0
2016-Dec-08 09:30N 31°60' W 080°43'0 0.0
2016-Dec-08 08:30N 31°60' W 080°43'0 0.0
2016-Dec-08 07:30N 32°00' W 080°43'0 0.1
2016-Dec-08 06:18N 32°00' W 080°43'0 0.1
2016-Dec-08 05:30N 32°00' W 080°43'0 0.0
2016-Dec-08 02:12N 32°00' W 080°43'0 0.0
2016-Dec-08 00:18N 31°60' W 080°43'0 0.0
2016-Dec-07 23:30N 31°60' W 080°43'0 0.0
2016-Dec-07 22:24N 31°60' W 080°43'0 0.0
2016-Dec-07 21:30N 31°60' W 080°43'0 0.0
2016-Dec-07 20:30N 31°60' W 080°43'0 0.0
2016-Dec-07 19:18N 32°00' W 080°43'0 0.0
2016-Dec-07 18:30N 32°00' W 080°43'0 0.0
2016-Dec-07 17:32N 32°00' W 080°43'7 7.5
2016-Dec-07 16:33N 31°53' W 080°42'28913.0
2016-Dec-06 18:14N 27°06' W 079°54'1116.5
2016-Dec-06 17:33N 26°55' W 079°53'3316.3
2016-Dec-06 15:33N 26°23' W 079°53'1616.0
2016-Dec-06 14:33N 26°07' W 079°55'1716.6
2016-Dec-06 13:33N 25°50' W 079°57'1716.6
2016-Dec-06 12:33N 25°34' W 079°58'  
2016-Dec-02 21:24N 29°19' W 094°49'  
Track history (hours):
 
Tides and Currents Weather Stations Pressure Air Temp Water Temp Dewpoint Dewpoint Depression Visibility Wind Speed Wind Dir Waves Ship Positions

Stuyvesant

Owner: THE DUTRA GROUP, SAN RAFAEL, CA. More information available from US FCC via Universal Licensing System and Coast Guard Vessel Documentation Center.

Last reported at 2016-Dec-10 17:33 UTC. Time now 2016-Dec-10 18:33 UTC.
Position N 31°60' W 080°47'.

Length 122 m; draft 10 m.

Type: Dredging. MMSI: 368098000.

Date/timePositionNaut miles runAvg speedWind from/ knotsBaromVisibWave heightAir tempDewpointWater temp
2016-Dec-10 17:33N 31°60' W 080°47'4 4.2
2016-Dec-10 16:33N 31°56' W 080°45'2 1.5
2016-Dec-10 15:33N 31°56' W 080°43'7 6.8
2016-Dec-10 14:33N 32°01' W 080°49'0 0.4
2016-Dec-10 13:33N 32°01' W 080°48'2 1.5
2016-Dec-10 12:33N 31°60' W 080°47'4 4.2
2016-Dec-10 11:33N 31°56' W 080°46'3 3.4
2016-Dec-10 10:33N 31°58' W 080°43'5 4.5
2016-Dec-10 09:33N 32°00' W 080°48'1 1.4
2016-Dec-10 08:33N 32°01' W 080°49'6 6.1
2016-Dec-10 07:33N 31°56' W 080°46'3 2.8
2016-Dec-10 06:27N 31°59' W 080°45'4 4.5
2016-Dec-10 05:33N 32°01' W 080°49'2 1.6
2016-Dec-10 04:33N 32°00' W 080°48'5 4.8
2016-Dec-10 03:33N 31°57' W 080°43'2 2.3
2016-Dec-10 02:33N 31°56' W 080°46'6 4.7
2016-Dec-10 01:20N 32°01' W 080°48'0 0.1
2016-Dec-10 00:33N 32°01' W 080°48'1 1.3
2016-Dec-09 23:33N 32°00' W 080°47'5 4.8
2016-Dec-09 22:33N 31°56' W 080°45'0 0.5
2016-Dec-09 21:33N 31°56' W 080°44'5 5.2
2016-Dec-09 20:32N 32°00' W 080°48'2 1.6
2016-Dec-09 19:33N 32°01' W 080°49'2 1.6
2016-Dec-09 18:33N 32°00' W 080°48'3 3.5
2016-Dec-09 17:33N 31°58' W 080°44'3 2.7
2016-Dec-09 16:33N 31°56' W 080°46'5 4.6
2016-Dec-09 15:33N 32°00' W 080°48'2 1.5
2016-Dec-09 14:33N 32°02' W 080°49'1 1.2
2016-Dec-09 13:33N 32°01' W 080°48'1 1.1
2016-Dec-09 12:33N 31°60' W 080°47'3 3.4
2016-Dec-09 11:32N 31°60' W 080°43'0 0.0
2016-Dec-09 10:32N 31°60' W 080°43'0 0.0
2016-Dec-09 09:32N 31°60' W 080°43'0 0.0
2016-Dec-09 08:32N 31°60' W 080°43'0 0.0
2016-Dec-09 07:32N 31°60' W 080°43'0 0.0
2016-Dec-09 06:32N 31°60' W 080°43'0 0.0
2016-Dec-09 05:32N 31°60' W 080°43'0 0.0
2016-Dec-09 04:26N 31°60' W 080°43'0 0.0
2016-Dec-09 03:32N 31°60' W 080°43'0 0.0
2016-Dec-09 02:26N 31°60' W 080°43'0 0.0
2016-Dec-09 01:26N 31°60' W 080°43'0 0.0
2016-Dec-09 00:32N 31°60' W 080°43'0 0.0
2016-Dec-08 23:32N 31°60' W 080°43'0 0.0
2016-Dec-08 22:32N 31°60' W 080°43'0 0.0
2016-Dec-08 21:32N 31°60' W 080°43'0 0.0
2016-Dec-08 20:26N 31°60' W 080°43'0 0.0
2016-Dec-08 19:32N 31°60' W 080°43'0 0.1
2016-Dec-08 18:32N 31°60' W 080°43'0 0.0
2016-Dec-08 17:26N 31°60' W 080°43'0 0.0
2016-Dec-08 16:32N 31°60' W 080°43'0 0.0
2016-Dec-08 15:33N 31°60' W 080°43'1 1.3
2016-Dec-08 14:33N 31°59' W 080°44'1 1.3
2016-Dec-08 13:30N 31°60' W 080°43'0 0.0
2016-Dec-08 12:30N 31°60' W 080°43'0 0.0
2016-Dec-08 11:24N 31°60' W 080°43'0 0.0
2016-Dec-08 10:30N 31°60' W 080°43'0 0.0
2016-Dec-08 09:30N 31°60' W 080°43'0 0.0
2016-Dec-08 08:30N 31°60' W 080°43'0 0.0
2016-Dec-08 07:30N 32°00' W 080°43'0 0.1
2016-Dec-08 06:18N 32°00' W 080°43'0 0.1
2016-Dec-08 05:30N 32°00' W 080°43'0 0.0
2016-Dec-08 02:12N 32°00' W 080°43'0 0.0
2016-Dec-08 00:18N 31°60' W 080°43'0 0.0
2016-Dec-07 23:30N 31°60' W 080°43'0 0.0
2016-Dec-07 22:24N 31°60' W 080°43'0 0.0
2016-Dec-07 21:30N 31°60' W 080°43'0 0.0
2016-Dec-07 20:30N 31°60' W 080°43'0 0.0
2016-Dec-07 19:18N 32°00' W 080°43'0 0.0
2016-Dec-07 18:30N 32°00' W 080°43'0 0.0
2016-Dec-07 17:32N 32°00' W 080°43'7 7.5
2016-Dec-07 16:33N 31°53' W 080°42'28913.0
2016-Dec-06 18:14N 27°06' W 079°54'1116.5
2016-Dec-06 17:33N 26°55' W 079°53'3316.3
2016-Dec-06 15:33N 26°23' W 079°53'1616.0
2016-Dec-06 14:33N 26°07' W 079°55'1716.6
2016-Dec-06 13:33N 25°50' W 079°57'1716.6
2016-Dec-06 12:33N 25°34' W 079°58'  
2016-Dec-02 21:24N 29°19' W 094°49'  

Dump ship's entire track history